sensor_id;sensor_type;location;lat;lon;timestamp;P1;durP1;ratioP1;P2;durP2;ratioP2
71814;SDS011;59659;41.520;23.794;2024-01-10T00:00:45;1.70;;;1.33;;
71814;SDS011;59659;41.520;23.794;2024-01-10T00:01:57;3.00;;;1.75;;
71814;SDS011;59659;41.520;23.794;2024-01-10T00:03:08;3.00;;;1.60;;
71814;SDS011;59659;41.520;23.794;2024-01-10T00:04:20;1.30;;;0.80;;
71814;SDS011;59659;41.520;23.794;2024-01-10T00:05:32;3.85;;;1.98;;
71814;SDS011;59659;41.520;23.794;2024-01-10T00:06:43;1.52;;;1.00;;
71814;SDS011;59659;41.520;23.794;2024-01-10T00:07:56;2.97;;;1.85;;
71814;SDS011;59659;41.520;23.794;2024-01-10T00:09:08;5.70;;;2.08;;
71814;SDS011;59659;41.520;23.794;2024-01-10T00:10:20;3.05;;;1.20;;
71814;SDS011;59659;41.520;23.794;2024-01-10T00:11:32;2.92;;;1.50;;
71814;SDS011;59659;41.520;23.794;2024-01-10T00:12:45;2.28;;;0.93;;
71814;SDS011;59659;41.520;23.794;2024-01-10T00:13:57;1.25;;;1.15;;
71814;SDS011;59659;41.520;23.794;2024-01-10T00:15:11;3.35;;;2.00;;
71814;SDS011;59659;41.520;23.794;2024-01-10T00:16:23;2.92;;;1.42;;
71814;SDS011;59659;41.520;23.794;2024-01-10T00:17:34;1.23;;;1.13;;
71814;SDS011;59659;41.520;23.794;2024-01-10T00:18:46;4.15;;;1.88;;
71814;SDS011;59659;41.520;23.794;2024-01-10T00:19:58;1.77;;;1.23;;
71814;SDS011;59659;41.520;23.794;2024-01-10T00:21:10;2.13;;;1.50;;
71814;SDS011;59659;41.520;23.794;2024-01-10T00:22:21;2.67;;;1.35;;
71814;SDS011;59659;41.520;23.794;2024-01-10T00:23:33;2.22;;;1.65;;
71814;SDS011;59659;41.520;23.794;2024-01-10T00:24:44;4.50;;;1.95;;
71814;SDS011;59659;41.520;23.794;2024-01-10T00:25:57;1.27;;;1.13;;
71814;SDS011;59659;41.520;23.794;2024-01-10T00:27:09;3.47;;;1.05;;
71814;SDS011;59659;41.520;23.794;2024-01-10T00:28:21;2.28;;;1.20;;
71814;SDS011;59659;41.520;23.794;2024-01-10T00:29:33;1.52;;;1.02;;
71814;SDS011;59659;41.520;23.794;2024-01-10T00:30:45;1.50;;;0.85;;
71814;SDS011;59659;41.520;23.794;2024-01-10T00:31:58;1.83;;;1.05;;
71814;SDS011;59659;41.520;23.794;2024-01-10T00:33:11;1.05;;;0.60;;
71814;SDS011;59659;41.520;23.794;2024-01-10T00:34:25;1.45;;;0.63;;
71814;SDS011;59659;41.520;23.794;2024-01-10T00:35:38;0.95;;;0.57;;
71814;SDS011;59659;41.520;23.794;2024-01-10T00:36:49;0.40;;;0.40;;
71814;SDS011;59659;41.520;23.794;2024-01-10T00:38:01;1.27;;;0.75;;
71814;SDS011;59659;41.520;23.794;2024-01-10T00:39:12;1.58;;;0.95;;
71814;SDS011;59659;41.520;23.794;2024-01-10T00:40:24;2.35;;;1.02;;
71814;SDS011;59659;41.520;23.794;2024-01-10T00:41:36;2.40;;;1.60;;
71814;SDS011;59659;41.520;23.794;2024-01-10T00:42:47;0.70;;;0.70;;
71814;SDS011;59659;41.520;23.794;2024-01-10T00:43:59;0.38;;;0.38;;
71814;SDS011;59659;41.520;23.794;2024-01-10T00:45:10;1.05;;;0.80;;
71814;SDS011;59659;41.520;23.794;2024-01-10T00:46:22;1.25;;;1.15;;
71814;SDS011;59659;41.520;23.794;2024-01-10T00:47:33;1.25;;;0.82;;
71814;SDS011;59659;41.520;23.794;2024-01-10T00:48:45;1.17;;;0.80;;
71814;SDS011;59659;41.520;23.794;2024-01-10T00:49:57;0.50;;;0.50;;
71814;SDS011;59659;41.520;23.794;2024-01-10T00:51:09;1.27;;;0.98;;
71814;SDS011;59659;41.520;23.794;2024-01-10T00:52:21;1.08;;;0.93;;
71814;SDS011;59659;41.520;23.794;2024-01-10T00:53:32;0.80;;;0.65;;
71814;SDS011;59659;41.520;23.794;2024-01-10T00:54:44;0.77;;;0.77;;
71814;SDS011;59659;41.520;23.794;2024-01-10T00:55:57;2.17;;;0.95;;
71814;SDS011;59659;41.520;23.794;2024-01-10T00:57:09;2.13;;;0.80;;
71814;SDS011;59659;41.520;23.794;2024-01-10T00:58:20;0.57;;;0.55;;
71814;SDS011;59659;41.520;23.794;2024-01-10T00:59:32;0.60;;;0.60;;
71814;SDS011;59659;41.520;23.794;2024-01-10T01:00:44;0.70;;;0.70;;
71814;SDS011;59659;41.520;23.794;2024-01-10T01:01:55;1.05;;;0.90;;
71814;SDS011;59659;41.520;23.794;2024-01-10T01:03:07;0.85;;;0.73;;
71814;SDS011;59659;41.520;23.794;2024-01-10T01:04:18;1.98;;;1.88;;
71814;SDS011;59659;41.520;23.794;2024-01-10T01:05:30;0.70;;;0.70;;
71814;SDS011;59659;41.520;23.794;2024-01-10T01:06:42;0.57;;;0.55;;
71814;SDS011;59659;41.520;23.794;2024-01-10T01:07:53;1.88;;;0.85;;
71814;SDS011;59659;41.520;23.794;2024-01-10T01:09:05;0.60;;;0.60;;
71814;SDS011;59659;41.520;23.794;2024-01-10T01:10:16;1.10;;;1.00;;
71814;SDS011;59659;41.520;23.794;2024-01-10T01:11:28;0.63;;;0.63;;
71814;SDS011;59659;41.520;23.794;2024-01-10T01:12:39;0.80;;;0.80;;
71814;SDS011;59659;41.520;23.794;2024-01-10T01:13:51;0.80;;;0.80;;
71814;SDS011;59659;41.520;23.794;2024-01-10T01:15:03;1.27;;;0.60;;
71814;SDS011;59659;41.520;23.794;2024-01-10T01:16:14;1.48;;;0.70;;
71814;SDS011;59659;41.520;23.794;2024-01-10T01:17:26;0.95;;;0.65;;
71814;SDS011;59659;41.520;23.794;2024-01-10T01:18:37;1.45;;;0.73;;
71814;SDS011;59659;41.520;23.794;2024-01-10T01:19:49;0.85;;;0.85;;
71814;SDS011;59659;41.520;23.794;2024-01-10T01:21:01;1.15;;;0.80;;
71814;SDS011;59659;41.520;23.794;2024-01-10T01:22:12;0.80;;;0.80;;
71814;SDS011;59659;41.520;23.794;2024-01-10T01:23:24;1.08;;;0.80;;
71814;SDS011;59659;41.520;23.794;2024-01-10T01:24:49;0.50;;;0.50;;
71814;SDS011;59659;41.520;23.794;2024-01-10T01:26:00;0.70;;;0.70;;
71814;SDS011;59659;41.520;23.794;2024-01-10T01:27:12;0.90;;;0.70;;
71814;SDS011;59659;41.520;23.794;2024-01-10T01:28:23;0.70;;;0.60;;
71814;SDS011;59659;41.520;23.794;2024-01-10T01:29:35;1.00;;;0.55;;
71814;SDS011;59659;41.520;23.794;2024-01-10T01:30:46;0.68;;;0.60;;
71814;SDS011;59659;41.520;23.794;2024-01-10T01:31:58;1.15;;;0.60;;
71814;SDS011;59659;41.520;23.794;2024-01-10T01:33:10;1.20;;;0.80;;
71814;SDS011;59659;41.520;23.794;2024-01-10T01:34:21;0.73;;;0.73;;
71814;SDS011;59659;41.520;23.794;2024-01-10T01:35:33;1.42;;;0.80;;
71814;SDS011;59659;41.520;23.794;2024-01-10T01:36:44;0.95;;;0.90;;
71814;SDS011;59659;41.520;23.794;2024-01-10T01:37:57;0.70;;;0.70;;
71814;SDS011;59659;41.520;23.794;2024-01-10T01:39:09;0.60;;;0.60;;
71814;SDS011;59659;41.520;23.794;2024-01-10T01:40:20;0.73;;;0.68;;
71814;SDS011;59659;41.520;23.794;2024-01-10T01:41:32;0.40;;;0.40;;
71814;SDS011;59659;41.520;23.794;2024-01-10T01:42:44;0.40;;;0.40;;
71814;SDS011;59659;41.520;23.794;2024-01-10T01:43:56;1.40;;;0.75;;
71814;SDS011;59659;41.520;23.794;2024-01-10T01:45:07;1.33;;;0.95;;
71814;SDS011;59659;41.520;23.794;2024-01-10T01:46:19;0.75;;;0.65;;
71814;SDS011;59659;41.520;23.794;2024-01-10T01:47:31;1.08;;;0.70;;
71814;SDS011;59659;41.520;23.794;2024-01-10T01:48:42;0.55;;;0.55;;
71814;SDS011;59659;41.520;23.794;2024-01-10T01:49:54;1.42;;;0.95;;
71814;SDS011;59659;41.520;23.794;2024-01-10T01:51:06;0.55;;;0.55;;
71814;SDS011;59659;41.520;23.794;2024-01-10T01:52:18;1.08;;;0.90;;
71814;SDS011;59659;41.520;23.794;2024-01-10T01:53:31;2.45;;;0.98;;
71814;SDS011;59659;41.520;23.794;2024-01-10T01:54:42;0.57;;;0.50;;
71814;SDS011;59659;41.520;23.794;2024-01-10T01:55:54;0.80;;;0.80;;
71814;SDS011;59659;41.520;23.794;2024-01-10T01:57:06;0.60;;;0.55;;
71814;SDS011;59659;41.520;23.794;2024-01-10T01:58:17;0.95;;;0.70;;
71814;SDS011;59659;41.520;23.794;2024-01-10T01:59:29;0.70;;;0.70;;
71814;SDS011;59659;41.520;23.794;2024-01-10T02:00:41;0.60;;;0.60;;
71814;SDS011;59659;41.520;23.794;2024-01-10T02:01:53;1.33;;;0.50;;
71814;SDS011;59659;41.520;23.794;2024-01-10T02:03:05;2.20;;;0.63;;
71814;SDS011;59659;41.520;23.794;2024-01-10T02:04:18;2.53;;;1.25;;
71814;SDS011;59659;41.520;23.794;2024-01-10T02:05:30;0.65;;;0.52;;
71814;SDS011;59659;41.520;23.794;2024-01-10T02:06:42;0.57;;;0.57;;
71814;SDS011;59659;41.520;23.794;2024-01-10T02:07:53;0.73;;;0.70;;
71814;SDS011;59659;41.520;23.794;2024-01-10T02:09:06;0.80;;;0.60;;
71814;SDS011;59659;41.520;23.794;2024-01-10T02:10:19;0.68;;;0.68;;
71814;SDS011;59659;41.520;23.794;2024-01-10T02:11:31;0.60;;;0.47;;
71814;SDS011;59659;41.520;23.794;2024-01-10T02:12:42;0.40;;;0.40;;
71814;SDS011;59659;41.520;23.794;2024-01-10T02:13:54;0.68;;;0.60;;
71814;SDS011;59659;41.520;23.794;2024-01-10T02:15:06;0.82;;;0.82;;
71814;SDS011;59659;41.520;23.794;2024-01-10T02:16:18;0.47;;;0.47;;
71814;SDS011;59659;41.520;23.794;2024-01-10T02:17:30;0.60;;;0.60;;
71814;SDS011;59659;41.520;23.794;2024-01-10T02:18:41;0.88;;;0.70;;
71814;SDS011;59659;41.520;23.794;2024-01-10T02:20:09;1.38;;;0.50;;
71814;SDS011;59659;41.520;23.794;2024-01-10T02:21:21;0.68;;;0.57;;
71814;SDS011;59659;41.520;23.794;2024-01-10T02:22:33;0.40;;;0.40;;
71814;SDS011;59659;41.520;23.794;2024-01-10T02:23:45;0.63;;;0.55;;
71814;SDS011;59659;41.520;23.794;2024-01-10T02:24:56;0.88;;;0.70;;
71814;SDS011;59659;41.520;23.794;2024-01-10T02:26:08;0.70;;;0.50;;
71814;SDS011;59659;41.520;23.794;2024-01-10T02:27:19;1.52;;;0.63;;
71814;SDS011;59659;41.520;23.794;2024-01-10T02:28:31;1.50;;;1.10;;
71814;SDS011;59659;41.520;23.794;2024-01-10T02:29:42;6.63;;;1.90;;
71814;SDS011;59659;41.520;23.794;2024-01-10T02:30:54;4.45;;;1.55;;
71814;SDS011;59659;41.520;23.794;2024-01-10T02:32:06;2.38;;;1.70;;
71814;SDS011;59659;41.520;23.794;2024-01-10T02:33:17;6.05;;;1.80;;
71814;SDS011;59659;41.520;23.794;2024-01-10T02:34:29;6.43;;;2.28;;
71814;SDS011;59659;41.520;23.794;2024-01-10T02:35:42;7.80;;;2.67;;
71814;SDS011;59659;41.520;23.794;2024-01-10T02:36:53;2.80;;;1.40;;
71814;SDS011;59659;41.520;23.794;2024-01-10T02:38:05;1.05;;;0.95;;
71814;SDS011;59659;41.520;23.794;2024-01-10T02:39:17;3.05;;;1.27;;
71814;SDS011;59659;41.520;23.794;2024-01-10T02:40:28;2.03;;;1.33;;
71814;SDS011;59659;41.520;23.794;2024-01-10T02:41:40;1.75;;;0.80;;
71814;SDS011;59659;41.520;23.794;2024-01-10T02:42:51;4.05;;;1.20;;
71814;SDS011;59659;41.520;23.794;2024-01-10T02:44:03;2.83;;;1.23;;
71814;SDS011;59659;41.520;23.794;2024-01-10T02:45:15;3.05;;;1.45;;
71814;SDS011;59659;41.520;23.794;2024-01-10T02:46:26;3.10;;;1.27;;
71814;SDS011;59659;41.520;23.794;2024-01-10T02:47:41;1.13;;;0.80;;
71814;SDS011;59659;41.520;23.794;2024-01-10T02:48:53;1.50;;;0.93;;
71814;SDS011;59659;41.520;23.794;2024-01-10T02:50:05;2.63;;;1.63;;
71814;SDS011;59659;41.520;23.794;2024-01-10T02:51:17;1.83;;;1.05;;
71814;SDS011;59659;41.520;23.794;2024-01-10T02:52:28;2.97;;;1.42;;
71814;SDS011;59659;41.520;23.794;2024-01-10T02:53:40;2.08;;;0.90;;
71814;SDS011;59659;41.520;23.794;2024-01-10T02:54:51;0.50;;;0.50;;
71814;SDS011;59659;41.520;23.794;2024-01-10T02:56:03;0.50;;;0.50;;
71814;SDS011;59659;41.520;23.794;2024-01-10T02:57:15;1.23;;;0.70;;
71814;SDS011;59659;41.520;23.794;2024-01-10T02:58:26;1.05;;;0.93;;
71814;SDS011;59659;41.520;23.794;2024-01-10T02:59:39;0.93;;;0.70;;
71814;SDS011;59659;41.520;23.794;2024-01-10T03:00:51;0.75;;;0.65;;
71814;SDS011;59659;41.520;23.794;2024-01-10T03:02:02;0.98;;;0.70;;
71814;SDS011;59659;41.520;23.794;2024-01-10T03:03:14;0.35;;;0.35;;
71814;SDS011;59659;41.520;23.794;2024-01-10T03:04:26;0.95;;;0.70;;
71814;SDS011;59659;41.520;23.794;2024-01-10T03:05:37;1.42;;;0.85;;
71814;SDS011;59659;41.520;23.794;2024-01-10T03:06:49;0.60;;;0.50;;
71814;SDS011;59659;41.520;23.794;2024-01-10T03:08:00;0.68;;;0.68;;
71814;SDS011;59659;41.520;23.794;2024-01-10T03:09:13;0.93;;;0.65;;
71814;SDS011;59659;41.520;23.794;2024-01-10T03:10:25;0.77;;;0.70;;
71814;SDS011;59659;41.520;23.794;2024-01-10T03:11:36;1.13;;;0.70;;
71814;SDS011;59659;41.520;23.794;2024-01-10T03:12:48;1.83;;;1.10;;
71814;SDS011;59659;41.520;23.794;2024-01-10T03:14:18;0.65;;;0.63;;
71814;SDS011;59659;41.520;23.794;2024-01-10T03:15:29;1.27;;;1.10;;
71814;SDS011;59659;41.520;23.794;2024-01-10T03:16:42;3.20;;;0.90;;
71814;SDS011;59659;41.520;23.794;2024-01-10T03:17:54;0.60;;;0.60;;
71814;SDS011;59659;41.520;23.794;2024-01-10T03:19:05;3.00;;;0.75;;
71814;SDS011;59659;41.520;23.794;2024-01-10T03:20:17;1.30;;;1.13;;
71814;SDS011;59659;41.520;23.794;2024-01-10T03:21:29;4.20;;;1.45;;
71814;SDS011;59659;41.520;23.794;2024-01-10T03:22:40;2.90;;;1.50;;
71814;SDS011;59659;41.520;23.794;2024-01-10T03:23:52;1.48;;;1.25;;
71814;SDS011;59659;41.520;23.794;2024-01-10T03:25:04;3.95;;;2.30;;
71814;SDS011;59659;41.520;23.794;2024-01-10T03:26:16;2.63;;;1.67;;
71814;SDS011;59659;41.520;23.794;2024-01-10T03:27:27;2.15;;;1.38;;
71814;SDS011;59659;41.520;23.794;2024-01-10T03:28:39;2.03;;;1.33;;
71814;SDS011;59659;41.520;23.794;2024-01-10T03:29:50;2.97;;;1.45;;
71814;SDS011;59659;41.520;23.794;2024-01-10T03:31:02;1.05;;;1.00;;
71814;SDS011;59659;41.520;23.794;2024-01-10T03:32:14;5.05;;;1.88;;
71814;SDS011;59659;41.520;23.794;2024-01-10T03:33:25;2.38;;;1.42;;
71814;SDS011;59659;41.520;23.794;2024-01-10T03:34:37;2.53;;;1.20;;
71814;SDS011;59659;41.520;23.794;2024-01-10T03:35:48;3.58;;;2.83;;
71814;SDS011;59659;41.520;23.794;2024-01-10T03:37:00;6.85;;;3.83;;
71814;SDS011;59659;41.520;23.794;2024-01-10T03:38:11;4.80;;;2.55;;
71814;SDS011;59659;41.520;23.794;2024-01-10T03:39:23;2.40;;;1.13;;
71814;SDS011;59659;41.520;23.794;2024-01-10T03:40:35;2.35;;;1.23;;
71814;SDS011;59659;41.520;23.794;2024-01-10T03:41:46;4.88;;;1.30;;
71814;SDS011;59659;41.520;23.794;2024-01-10T03:42:58;3.25;;;1.90;;
71814;SDS011;59659;41.520;23.794;2024-01-10T03:44:10;5.43;;;1.92;;
71814;SDS011;59659;41.520;23.794;2024-01-10T03:45:21;4.35;;;2.20;;
71814;SDS011;59659;41.520;23.794;2024-01-10T03:46:34;4.28;;;2.50;;
71814;SDS011;59659;41.520;23.794;2024-01-10T03:47:46;7.63;;;2.60;;
71814;SDS011;59659;41.520;23.794;2024-01-10T03:49:01;5.07;;;2.47;;
71814;SDS011;59659;41.520;23.794;2024-01-10T03:50:13;2.45;;;2.00;;
71814;SDS011;59659;41.520;23.794;2024-01-10T03:51:25;8.48;;;2.67;;
71814;SDS011;59659;41.520;23.794;2024-01-10T03:52:36;3.00;;;2.00;;
71814;SDS011;59659;41.520;23.794;2024-01-10T03:53:48;6.47;;;3.20;;
71814;SDS011;59659;41.520;23.794;2024-01-10T03:55:00;10.18;;;3.13;;
71814;SDS011;59659;41.520;23.794;2024-01-10T03:56:12;4.65;;;2.35;;
71814;SDS011;59659;41.520;23.794;2024-01-10T03:57:24;11.27;;;5.07;;
71814;SDS011;59659;41.520;23.794;2024-01-10T03:58:35;7.47;;;4.82;;
71814;SDS011;59659;41.520;23.794;2024-01-10T03:59:47;31.75;;;13.98;;
71814;SDS011;59659;41.520;23.794;2024-01-10T04:00:58;17.20;;;8.45;;
71814;SDS011;59659;41.520;23.794;2024-01-10T04:02:10;17.30;;;8.40;;
71814;SDS011;59659;41.520;23.794;2024-01-10T04:03:22;24.13;;;9.48;;
71814;SDS011;59659;41.520;23.794;2024-01-10T04:04:36;6.80;;;3.38;;
71814;SDS011;59659;41.520;23.794;2024-01-10T04:05:48;6.03;;;3.33;;
71814;SDS011;59659;41.520;23.794;2024-01-10T04:06:59;8.23;;;3.75;;
71814;SDS011;59659;41.520;23.794;2024-01-10T04:08:11;12.05;;;5.55;;
71814;SDS011;59659;41.520;23.794;2024-01-10T04:09:22;15.20;;;8.60;;
71814;SDS011;59659;41.520;23.794;2024-01-10T04:10:34;9.70;;;5.30;;
71814;SDS011;59659;41.520;23.794;2024-01-10T04:11:46;22.35;;;11.55;;
71814;SDS011;59659;41.520;23.794;2024-01-10T04:12:57;27.13;;;10.77;;
71814;SDS011;59659;41.520;23.794;2024-01-10T04:14:09;34.40;;;15.60;;
71814;SDS011;59659;41.520;23.794;2024-01-10T04:15:20;14.15;;;6.72;;
71814;SDS011;59659;41.520;23.794;2024-01-10T04:16:32;16.33;;;7.22;;
71814;SDS011;59659;41.520;23.794;2024-01-10T04:17:43;9.15;;;4.18;;
71814;SDS011;59659;41.520;23.794;2024-01-10T04:18:55;15.27;;;8.23;;
71814;SDS011;59659;41.520;23.794;2024-01-10T04:20:07;12.82;;;6.85;;
71814;SDS011;59659;41.520;23.794;2024-01-10T04:21:19;11.70;;;5.72;;
71814;SDS011;59659;41.520;23.794;2024-01-10T04:22:31;10.48;;;4.93;;
71814;SDS011;59659;41.520;23.794;2024-01-10T04:23:42;5.80;;;3.20;;
71814;SDS011;59659;41.520;23.794;2024-01-10T04:24:56;3.85;;;2.40;;
71814;SDS011;59659;41.520;23.794;2024-01-10T04:26:08;8.93;;;2.92;;
71814;SDS011;59659;41.520;23.794;2024-01-10T04:27:19;16.25;;;5.78;;
71814;SDS011;59659;41.520;23.794;2024-01-10T04:28:31;24.02;;;7.47;;
71814;SDS011;59659;41.520;23.794;2024-01-10T04:29:43;18.40;;;7.75;;
71814;SDS011;59659;41.520;23.794;2024-01-10T04:30:54;32.58;;;9.25;;
71814;SDS011;59659;41.520;23.794;2024-01-10T04:32:06;27.40;;;7.53;;
71814;SDS011;59659;41.520;23.794;2024-01-10T04:33:18;9.73;;;4.00;;
71814;SDS011;59659;41.520;23.794;2024-01-10T04:34:29;12.85;;;3.95;;
71814;SDS011;59659;41.520;23.794;2024-01-10T04:35:41;9.93;;;3.35;;
71814;SDS011;59659;41.520;23.794;2024-01-10T04:36:52;10.13;;;4.75;;
71814;SDS011;59659;41.520;23.794;2024-01-10T04:38:04;7.00;;;3.40;;
71814;SDS011;59659;41.520;23.794;2024-01-10T04:39:15;15.02;;;8.25;;
71814;SDS011;59659;41.520;23.794;2024-01-10T04:40:27;12.15;;;5.57;;
71814;SDS011;59659;41.520;23.794;2024-01-10T04:41:38;12.80;;;5.85;;
71814;SDS011;59659;41.520;23.794;2024-01-10T04:42:51;9.50;;;4.93;;
71814;SDS011;59659;41.520;23.794;2024-01-10T04:44:02;15.68;;;5.32;;
71814;SDS011;59659;41.520;23.794;2024-01-10T04:45:14;11.77;;;4.75;;
71814;SDS011;59659;41.520;23.794;2024-01-10T04:46:26;11.32;;;4.97;;
71814;SDS011;59659;41.520;23.794;2024-01-10T04:47:37;16.52;;;7.63;;
71814;SDS011;59659;41.520;23.794;2024-01-10T04:48:49;21.35;;;7.68;;
71814;SDS011;59659;41.520;23.794;2024-01-10T04:50:00;12.75;;;6.68;;
71814;SDS011;59659;41.520;23.794;2024-01-10T04:51:12;10.85;;;4.63;;
71814;SDS011;59659;41.520;23.794;2024-01-10T04:52:24;21.20;;;7.53;;
71814;SDS011;59659;41.520;23.794;2024-01-10T04:53:35;17.67;;;8.65;;
71814;SDS011;59659;41.520;23.794;2024-01-10T04:54:47;30.83;;;13.07;;
71814;SDS011;59659;41.520;23.794;2024-01-10T04:55:59;24.27;;;11.00;;
71814;SDS011;59659;41.520;23.794;2024-01-10T04:57:10;73.32;;;28.42;;
71814;SDS011;59659;41.520;23.794;2024-01-10T04:58:22;50.92;;;21.35;;
71814;SDS011;59659;41.520;23.794;2024-01-10T04:59:33;59.63;;;23.27;;
71814;SDS011;59659;41.520;23.794;2024-01-10T05:00:45;42.42;;;18.15;;
71814;SDS011;59659;41.520;23.794;2024-01-10T05:01:56;37.45;;;17.63;;
71814;SDS011;59659;41.520;23.794;2024-01-10T05:03:08;32.45;;;15.82;;
71814;SDS011;59659;41.520;23.794;2024-01-10T05:04:20;37.83;;;14.05;;
71814;SDS011;59659;41.520;23.794;2024-01-10T05:05:31;31.15;;;12.70;;
71814;SDS011;59659;41.520;23.794;2024-01-10T05:06:43;21.02;;;7.72;;
71814;SDS011;59659;41.520;23.794;2024-01-10T05:07:54;22.02;;;6.43;;
71814;SDS011;59659;41.520;23.794;2024-01-10T05:09:06;7.78;;;4.88;;
71814;SDS011;59659;41.520;23.794;2024-01-10T05:10:18;11.05;;;4.50;;
71814;SDS011;59659;41.520;23.794;2024-01-10T05:11:29;12.10;;;4.78;;
71814;SDS011;59659;41.520;23.794;2024-01-10T05:12:41;12.23;;;4.20;;
71814;SDS011;59659;41.520;23.794;2024-01-10T05:13:53;10.52;;;4.55;;
71814;SDS011;59659;41.520;23.794;2024-01-10T05:15:04;12.88;;;6.20;;
71814;SDS011;59659;41.520;23.794;2024-01-10T05:16:16;9.82;;;4.65;;
71814;SDS011;59659;41.520;23.794;2024-01-10T05:17:28;19.95;;;8.15;;
71814;SDS011;59659;41.520;23.794;2024-01-10T05:18:40;31.33;;;11.18;;
71814;SDS011;59659;41.520;23.794;2024-01-10T05:19:51;40.95;;;15.05;;
71814;SDS011;59659;41.520;23.794;2024-01-10T05:21:04;77.05;;;27.27;;
71814;SDS011;59659;41.520;23.794;2024-01-10T05:22:16;77.22;;;32.08;;
71814;SDS011;59659;41.520;23.794;2024-01-10T05:23:27;92.47;;;37.10;;
71814;SDS011;59659;41.520;23.794;2024-01-10T05:24:39;112.07;;;45.38;;
71814;SDS011;59659;41.520;23.794;2024-01-10T05:25:50;124.97;;;51.30;;
71814;SDS011;59659;41.520;23.794;2024-01-10T05:27:02;123.28;;;50.42;;
71814;SDS011;59659;41.520;23.794;2024-01-10T05:28:14;115.10;;;40.08;;
71814;SDS011;59659;41.520;23.794;2024-01-10T05:29:26;76.65;;;31.25;;
71814;SDS011;59659;41.520;23.794;2024-01-10T05:30:38;119.05;;;41.35;;
71814;SDS011;59659;41.520;23.794;2024-01-10T05:31:50;223.10;;;77.63;;
71814;SDS011;59659;41.520;23.794;2024-01-10T05:33:02;249.13;;;83.72;;
71814;SDS011;59659;41.520;23.794;2024-01-10T05:34:13;251.02;;;85.22;;
71814;SDS011;59659;41.520;23.794;2024-01-10T05:35:25;241.32;;;77.93;;
71814;SDS011;59659;41.520;23.794;2024-01-10T05:36:37;226.95;;;67.03;;
71814;SDS011;59659;41.520;23.794;2024-01-10T05:37:48;168.48;;;56.50;;
71814;SDS011;59659;41.520;23.794;2024-01-10T05:39:01;176.20;;;54.95;;
71814;SDS011;59659;41.520;23.794;2024-01-10T05:40:13;187.52;;;54.40;;
71814;SDS011;59659;41.520;23.794;2024-01-10T05:41:25;79.65;;;27.13;;
71814;SDS011;59659;41.520;23.794;2024-01-10T05:42:36;43.67;;;15.07;;
71814;SDS011;59659;41.520;23.794;2024-01-10T05:45:55;27.88;;;9.30;;
71814;SDS011;59659;41.520;23.794;2024-01-10T05:47:07;29.67;;;10.48;;
71814;SDS011;59659;41.520;23.794;2024-01-10T05:48:18;28.40;;;10.18;;
71814;SDS011;59659;41.520;23.794;2024-01-10T05:49:30;15.13;;;7.47;;
71814;SDS011;59659;41.520;23.794;2024-01-10T05:50:42;16.33;;;6.32;;
71814;SDS011;59659;41.520;23.794;2024-01-10T05:51:53;12.93;;;5.88;;
71814;SDS011;59659;41.520;23.794;2024-01-10T05:53:05;9.35;;;5.00;;
71814;SDS011;59659;41.520;23.794;2024-01-10T05:54:16;7.65;;;4.45;;
71814;SDS011;59659;41.520;23.794;2024-01-10T05:55:29;8.35;;;3.75;;
71814;SDS011;59659;41.520;23.794;2024-01-10T05:56:41;8.20;;;4.38;;
71814;SDS011;59659;41.520;23.794;2024-01-10T05:57:52;11.48;;;4.85;;
71814;SDS011;59659;41.520;23.794;2024-01-10T05:59:04;7.68;;;3.40;;
71814;SDS011;59659;41.520;23.794;2024-01-10T06:00:16;5.03;;;2.50;;
71814;SDS011;59659;41.520;23.794;2024-01-10T06:01:28;4.25;;;2.75;;
71814;SDS011;59659;41.520;23.794;2024-01-10T06:02:40;9.18;;;3.35;;
71814;SDS011;59659;41.520;23.794;2024-01-10T06:03:51;10.38;;;4.50;;
71814;SDS011;59659;41.520;23.794;2024-01-10T06:05:03;6.80;;;3.78;;
71814;SDS011;59659;41.520;23.794;2024-01-10T06:06:17;5.20;;;3.70;;
71814;SDS011;59659;41.520;23.794;2024-01-10T06:07:29;5.97;;;3.55;;
71814;SDS011;59659;41.520;23.794;2024-01-10T06:08:40;6.50;;;3.38;;
71814;SDS011;59659;41.520;23.794;2024-01-10T06:09:52;5.60;;;2.75;;
71814;SDS011;59659;41.520;23.794;2024-01-10T06:11:04;8.88;;;4.80;;
71814;SDS011;59659;41.520;23.794;2024-01-10T06:12:17;7.97;;;3.90;;
71814;SDS011;59659;41.520;23.794;2024-01-10T06:13:29;12.60;;;4.90;;
71814;SDS011;59659;41.520;23.794;2024-01-10T06:14:56;9.82;;;4.50;;
71814;SDS011;59659;41.520;23.794;2024-01-10T06:16:08;11.52;;;5.50;;
71814;SDS011;59659;41.520;23.794;2024-01-10T06:17:20;14.05;;;5.22;;
71814;SDS011;59659;41.520;23.794;2024-01-10T06:18:32;11.05;;;5.30;;
71814;SDS011;59659;41.520;23.794;2024-01-10T06:19:44;18.25;;;10.65;;
71814;SDS011;59659;41.520;23.794;2024-01-10T06:20:55;20.38;;;8.93;;
71814;SDS011;59659;41.520;23.794;2024-01-10T06:22:07;15.68;;;7.50;;
71814;SDS011;59659;41.520;23.794;2024-01-10T06:23:18;19.02;;;8.65;;
71814;SDS011;59659;41.520;23.794;2024-01-10T06:24:30;20.92;;;9.20;;
71814;SDS011;59659;41.520;23.794;2024-01-10T06:25:42;23.90;;;10.52;;
71814;SDS011;59659;41.520;23.794;2024-01-10T06:26:53;26.42;;;9.70;;
71814;SDS011;59659;41.520;23.794;2024-01-10T06:28:05;18.48;;;9.90;;
71814;SDS011;59659;41.520;23.794;2024-01-10T06:29:17;22.20;;;9.90;;
71814;SDS011;59659;41.520;23.794;2024-01-10T06:30:28;17.02;;;8.57;;
71814;SDS011;59659;41.520;23.794;2024-01-10T06:31:40;18.95;;;8.38;;
71814;SDS011;59659;41.520;23.794;2024-01-10T06:32:52;16.35;;;6.93;;
71814;SDS011;59659;41.520;23.794;2024-01-10T06:34:03;12.52;;;6.18;;
71814;SDS011;59659;41.520;23.794;2024-01-10T06:35:15;12.82;;;6.57;;
71814;SDS011;59659;41.520;23.794;2024-01-10T06:36:26;8.88;;;4.88;;
71814;SDS011;59659;41.520;23.794;2024-01-10T06:37:38;10.55;;;6.13;;
71814;SDS011;59659;41.520;23.794;2024-01-10T06:38:50;9.13;;;5.82;;
71814;SDS011;59659;41.520;23.794;2024-01-10T06:40:02;21.65;;;7.50;;
71814;SDS011;59659;41.520;23.794;2024-01-10T06:41:15;10.77;;;5.88;;
71814;SDS011;59659;41.520;23.794;2024-01-10T06:42:27;10.63;;;6.30;;
71814;SDS011;59659;41.520;23.794;2024-01-10T06:43:38;16.50;;;6.88;;
71814;SDS011;59659;41.520;23.794;2024-01-10T06:44:50;12.70;;;6.90;;
71814;SDS011;59659;41.520;23.794;2024-01-10T06:46:02;23.90;;;9.82;;
71814;SDS011;59659;41.520;23.794;2024-01-10T06:47:14;20.35;;;10.60;;
71814;SDS011;59659;41.520;23.794;2024-01-10T06:48:26;30.88;;;11.82;;
71814;SDS011;59659;41.520;23.794;2024-01-10T06:49:37;25.23;;;11.05;;
71814;SDS011;59659;41.520;23.794;2024-01-10T06:50:50;15.38;;;8.38;;
71814;SDS011;59659;41.520;23.794;2024-01-10T06:52:01;23.45;;;11.00;;
71814;SDS011;59659;41.520;23.794;2024-01-10T06:53:13;28.60;;;10.43;;
71814;SDS011;59659;41.520;23.794;2024-01-10T06:54:25;25.67;;;13.15;;
71814;SDS011;59659;41.520;23.794;2024-01-10T06:55:36;31.45;;;13.88;;
71814;SDS011;59659;41.520;23.794;2024-01-10T06:56:48;32.92;;;13.60;;
71814;SDS011;59659;41.520;23.794;2024-01-10T06:58:00;29.38;;;15.32;;
71814;SDS011;59659;41.520;23.794;2024-01-10T06:59:11;41.22;;;15.55;;
71814;SDS011;59659;41.520;23.794;2024-01-10T07:00:23;39.05;;;17.25;;
71814;SDS011;59659;41.520;23.794;2024-01-10T07:01:34;43.55;;;17.75;;
71814;SDS011;59659;41.520;23.794;2024-01-10T07:02:46;41.00;;;16.85;;
71814;SDS011;59659;41.520;23.794;2024-01-10T07:03:57;31.75;;;14.93;;
71814;SDS011;59659;41.520;23.794;2024-01-10T07:05:09;27.88;;;12.48;;
71814;SDS011;59659;41.520;23.794;2024-01-10T07:06:21;30.08;;;13.70;;